sensor_id;sensor_type;location;lat;lon;timestamp;P1;durP1;ratioP1;P2;durP2;ratioP2
22205;SDS011;11272;50.104;8.754;2023-05-15T00:01:15;6.73;;;4.00;;
22205;SDS011;11272;50.104;8.754;2023-05-15T00:03:41;5.40;;;3.40;;
22205;SDS011;11272;50.104;8.754;2023-05-15T00:06:06;4.60;;;3.00;;
22205;SDS011;11272;50.104;8.754;2023-05-15T00:08:32;5.10;;;3.20;;
22205;SDS011;11272;50.104;8.754;2023-05-15T00:10:57;3.87;;;2.80;;
22205;SDS011;11272;50.104;8.754;2023-05-15T00:13:23;4.80;;;3.00;;
22205;SDS011;11272;50.104;8.754;2023-05-15T00:15:48;5.33;;;3.40;;
22205;SDS011;11272;50.104;8.754;2023-05-15T00:18:14;5.43;;;3.40;;
22205;SDS011;11272;50.104;8.754;2023-05-15T00:20:39;4.93;;;3.37;;
22205;SDS011;11272;50.104;8.754;2023-05-15T00:23:05;4.30;;;3.10;;
22205;SDS011;11272;50.104;8.754;2023-05-15T00:25:31;4.77;;;3.20;;
22205;SDS011;11272;50.104;8.754;2023-05-15T00:27:56;4.47;;;3.23;;
22205;SDS011;11272;50.104;8.754;2023-05-15T00:30:22;5.00;;;3.43;;
22205;SDS011;11272;50.104;8.754;2023-05-15T00:32:47;6.50;;;4.20;;
22205;SDS011;11272;50.104;8.754;2023-05-15T00:35:16;6.77;;;3.60;;
22205;SDS011;11272;50.104;8.754;2023-05-15T00:37:41;4.47;;;3.20;;
22205;SDS011;11272;50.104;8.754;2023-05-15T00:40:09;4.77;;;3.30;;
22205;SDS011;11272;50.104;8.754;2023-05-15T00:42:40;6.17;;;3.60;;
22205;SDS011;11272;50.104;8.754;2023-05-15T00:45:06;3.70;;;3.00;;
22205;SDS011;11272;50.104;8.754;2023-05-15T00:47:34;6.57;;;3.07;;
22205;SDS011;11272;50.104;8.754;2023-05-15T00:50:02;5.47;;;3.40;;
22205;SDS011;11272;50.104;8.754;2023-05-15T00:52:28;5.27;;;3.33;;
22205;SDS011;11272;50.104;8.754;2023-05-15T00:54:55;4.13;;;3.10;;
22205;SDS011;11272;50.104;8.754;2023-05-15T00:57:20;4.87;;;3.10;;
22205;SDS011;11272;50.104;8.754;2023-05-15T00:59:48;5.53;;;3.20;;
22205;SDS011;11272;50.104;8.754;2023-05-15T01:02:16;3.23;;;2.93;;
22205;SDS011;11272;50.104;8.754;2023-05-15T01:04:45;4.87;;;3.00;;
22205;SDS011;11272;50.104;8.754;2023-05-15T01:07:11;5.13;;;3.47;;
22205;SDS011;11272;50.104;8.754;2023-05-15T01:09:37;5.60;;;3.40;;
22205;SDS011;11272;50.104;8.754;2023-05-15T01:12:06;6.33;;;3.57;;
22205;SDS011;11272;50.104;8.754;2023-05-15T01:14:33;4.60;;;3.53;;
22205;SDS011;11272;50.104;8.754;2023-05-15T01:16:59;6.83;;;3.67;;
22205;SDS011;11272;50.104;8.754;2023-05-15T01:19:24;4.17;;;3.10;;
22205;SDS011;11272;50.104;8.754;2023-05-15T01:24:48;5.17;;;3.50;;
22205;SDS011;11272;50.104;8.754;2023-05-15T01:27:49;5.27;;;3.33;;
22205;SDS011;11272;50.104;8.754;2023-05-15T01:30:23;4.80;;;3.40;;
22205;SDS011;11272;50.104;8.754;2023-05-15T01:33:02;4.93;;;3.37;;
22205;SDS011;11272;50.104;8.754;2023-05-15T01:38:18;4.97;;;3.57;;
22205;SDS011;11272;50.104;8.754;2023-05-15T01:41:13;5.00;;;3.70;;
22205;SDS011;11272;50.104;8.754;2023-05-15T01:43:44;8.00;;;3.90;;
22205;SDS011;11272;50.104;8.754;2023-05-15T01:46:13;5.27;;;3.27;;
22205;SDS011;11272;50.104;8.754;2023-05-15T01:48:42;7.13;;;3.60;;
22205;SDS011;11272;50.104;8.754;2023-05-15T01:51:10;5.10;;;3.03;;
22205;SDS011;11272;50.104;8.754;2023-05-15T01:53:40;5.03;;;3.67;;
22205;SDS011;11272;50.104;8.754;2023-05-15T01:56:07;5.17;;;3.30;;
22205;SDS011;11272;50.104;8.754;2023-05-15T01:58:35;6.00;;;3.20;;
22205;SDS011;11272;50.104;8.754;2023-05-15T02:01:01;5.67;;;3.73;;
22205;SDS011;11272;50.104;8.754;2023-05-15T02:03:29;5.57;;;4.00;;
22205;SDS011;11272;50.104;8.754;2023-05-15T02:05:59;5.13;;;3.90;;
22205;SDS011;11272;50.104;8.754;2023-05-15T02:08:26;5.67;;;3.70;;
22205;SDS011;11272;50.104;8.754;2023-05-15T02:10:54;4.37;;;3.40;;
22205;SDS011;11272;50.104;8.754;2023-05-15T02:13:22;6.60;;;3.93;;
22205;SDS011;11272;50.104;8.754;2023-05-15T02:15:50;5.70;;;4.00;;
22205;SDS011;11272;50.104;8.754;2023-05-15T02:18:15;5.30;;;3.60;;
22205;SDS011;11272;50.104;8.754;2023-05-15T02:20:41;5.70;;;3.80;;
22205;SDS011;11272;50.104;8.754;2023-05-15T02:23:07;4.30;;;3.23;;
22205;SDS011;11272;50.104;8.754;2023-05-15T02:28:23;6.37;;;3.80;;
22205;SDS011;11272;50.104;8.754;2023-05-15T02:30:57;4.43;;;3.13;;
22205;SDS011;11272;50.104;8.754;2023-05-15T02:33:39;5.23;;;3.40;;
22205;SDS011;11272;50.104;8.754;2023-05-15T02:36:15;7.03;;;3.90;;
22205;SDS011;11272;50.104;8.754;2023-05-15T02:38:49;5.77;;;3.47;;
22205;SDS011;11272;50.104;8.754;2023-05-15T02:41:19;4.73;;;3.53;;
22205;SDS011;11272;50.104;8.754;2023-05-15T02:43:46;4.93;;;3.40;;
22205;SDS011;11272;50.104;8.754;2023-05-15T02:46:15;4.90;;;3.47;;
22205;SDS011;11272;50.104;8.754;2023-05-15T02:48:43;4.03;;;3.27;;
22205;SDS011;11272;50.104;8.754;2023-05-15T02:51:11;4.70;;;3.60;;
22205;SDS011;11272;50.104;8.754;2023-05-15T02:53:41;4.53;;;3.47;;
22205;SDS011;11272;50.104;8.754;2023-05-15T02:56:07;4.73;;;3.50;;
22205;SDS011;11272;50.104;8.754;2023-05-15T02:58:33;3.50;;;3.10;;
22205;SDS011;11272;50.104;8.754;2023-05-15T03:00:59;5.13;;;3.47;;
22205;SDS011;11272;50.104;8.754;2023-05-15T03:03:25;5.57;;;3.73;;
22205;SDS011;11272;50.104;8.754;2023-05-15T03:05:51;7.73;;;4.07;;
22205;SDS011;11272;50.104;8.754;2023-05-15T03:08:18;4.33;;;3.37;;
22205;SDS011;11272;50.104;8.754;2023-05-15T03:10:43;7.80;;;3.60;;
22205;SDS011;11272;50.104;8.754;2023-05-15T03:13:09;5.43;;;3.77;;
22205;SDS011;11272;50.104;8.754;2023-05-15T03:15:37;4.70;;;3.77;;
22205;SDS011;11272;50.104;8.754;2023-05-15T03:18:02;5.50;;;3.37;;
22205;SDS011;11272;50.104;8.754;2023-05-15T03:20:28;5.60;;;3.50;;
22205;SDS011;11272;50.104;8.754;2023-05-15T03:22:54;4.20;;;3.50;;
22205;SDS011;11272;50.104;8.754;2023-05-15T03:25:20;5.10;;;3.50;;
22205;SDS011;11272;50.104;8.754;2023-05-15T03:27:49;6.40;;;3.80;;
22205;SDS011;11272;50.104;8.754;2023-05-15T03:30:14;5.37;;;3.90;;
22205;SDS011;11272;50.104;8.754;2023-05-15T03:32:40;4.97;;;3.57;;
22205;SDS011;11272;50.104;8.754;2023-05-15T03:35:06;4.90;;;3.70;;
22205;SDS011;11272;50.104;8.754;2023-05-15T03:37:32;7.13;;;3.53;;
22205;SDS011;11272;50.104;8.754;2023-05-15T03:39:57;5.40;;;3.83;;
22205;SDS011;11272;50.104;8.754;2023-05-15T03:42:23;6.47;;;4.00;;
22205;SDS011;11272;50.104;8.754;2023-05-15T03:44:49;5.20;;;3.90;;
22205;SDS011;11272;50.104;8.754;2023-05-15T03:47:15;6.13;;;4.30;;
22205;SDS011;11272;50.104;8.754;2023-05-15T03:49:41;6.37;;;4.07;;
22205;SDS011;11272;50.104;8.754;2023-05-15T03:52:09;5.13;;;4.00;;
22205;SDS011;11272;50.104;8.754;2023-05-15T03:54:34;6.33;;;4.30;;
22205;SDS011;11272;50.104;8.754;2023-05-15T03:57:00;5.97;;;4.17;;
22205;SDS011;11272;50.104;8.754;2023-05-15T03:59:28;5.77;;;4.30;;
22205;SDS011;11272;50.104;8.754;2023-05-15T04:01:54;5.37;;;4.00;;
22205;SDS011;11272;50.104;8.754;2023-05-15T04:04:19;4.33;;;3.70;;
22205;SDS011;11272;50.104;8.754;2023-05-15T04:06:45;6.00;;;4.20;;
22205;SDS011;11272;50.104;8.754;2023-05-15T04:09:10;7.00;;;4.23;;
22205;SDS011;11272;50.104;8.754;2023-05-15T04:11:36;7.07;;;4.47;;
22205;SDS011;11272;50.104;8.754;2023-05-15T04:14:01;5.57;;;4.17;;
22205;SDS011;11272;50.104;8.754;2023-05-15T04:16:27;5.93;;;4.20;;
22205;SDS011;11272;50.104;8.754;2023-05-15T04:18:52;5.87;;;4.13;;
22205;SDS011;11272;50.104;8.754;2023-05-15T04:21:18;5.60;;;4.07;;
22205;SDS011;11272;50.104;8.754;2023-05-15T04:23:44;6.70;;;4.43;;
22205;SDS011;11272;50.104;8.754;2023-05-15T04:26:09;7.17;;;4.43;;
22205;SDS011;11272;50.104;8.754;2023-05-15T04:28:35;6.83;;;4.97;;
22205;SDS011;11272;50.104;8.754;2023-05-15T04:31:03;6.03;;;4.30;;
22205;SDS011;11272;50.104;8.754;2023-05-15T04:33:31;6.90;;;4.40;;
22205;SDS011;11272;50.104;8.754;2023-05-15T04:35:57;9.47;;;4.20;;
22205;SDS011;11272;50.104;8.754;2023-05-15T04:38:25;5.80;;;4.23;;
22205;SDS011;11272;50.104;8.754;2023-05-15T04:40:51;5.30;;;4.07;;
22205;SDS011;11272;50.104;8.754;2023-05-15T04:43:17;6.23;;;4.60;;
22205;SDS011;11272;50.104;8.754;2023-05-15T04:45:43;8.63;;;4.73;;
22205;SDS011;11272;50.104;8.754;2023-05-15T04:48:08;6.50;;;4.83;;
22205;SDS011;11272;50.104;8.754;2023-05-15T04:50:33;6.37;;;4.13;;
22205;SDS011;11272;50.104;8.754;2023-05-15T04:53:00;6.00;;;4.53;;
22205;SDS011;11272;50.104;8.754;2023-05-15T04:55:26;7.93;;;5.07;;
22205;SDS011;11272;50.104;8.754;2023-05-15T04:57:51;7.50;;;4.73;;
22205;SDS011;11272;50.104;8.754;2023-05-15T05:00:17;8.37;;;5.60;;
22205;SDS011;11272;50.104;8.754;2023-05-15T05:02:43;8.37;;;5.43;;
22205;SDS011;11272;50.104;8.754;2023-05-15T05:05:09;8.83;;;5.53;;
22205;SDS011;11272;50.104;8.754;2023-05-15T05:07:34;8.47;;;5.87;;
22205;SDS011;11272;50.104;8.754;2023-05-15T05:10:00;6.53;;;4.77;;
22205;SDS011;11272;50.104;8.754;2023-05-15T05:12:26;8.10;;;4.80;;
22205;SDS011;11272;50.104;8.754;2023-05-15T05:14:52;6.07;;;4.53;;
22205;SDS011;11272;50.104;8.754;2023-05-15T05:17:17;5.97;;;4.97;;
22205;SDS011;11272;50.104;8.754;2023-05-15T05:19:43;5.87;;;4.60;;
22205;SDS011;11272;50.104;8.754;2023-05-15T05:22:09;5.27;;;4.13;;
22205;SDS011;11272;50.104;8.754;2023-05-15T05:24:35;5.97;;;4.40;;
22205;SDS011;11272;50.104;8.754;2023-05-15T05:27:02;5.53;;;4.20;;
22205;SDS011;11272;50.104;8.754;2023-05-15T05:29:30;6.70;;;4.03;;
22205;SDS011;11272;50.104;8.754;2023-05-15T05:31:56;6.07;;;4.10;;
22205;SDS011;11272;50.104;8.754;2023-05-15T05:34:24;6.77;;;4.40;;
22205;SDS011;11272;50.104;8.754;2023-05-15T05:36:50;7.83;;;4.30;;
22205;SDS011;11272;50.104;8.754;2023-05-15T05:39:15;5.30;;;4.20;;
22205;SDS011;11272;50.104;8.754;2023-05-15T05:41:42;6.10;;;4.57;;
22205;SDS011;11272;50.104;8.754;2023-05-15T05:44:07;6.40;;;4.90;;
22205;SDS011;11272;50.104;8.754;2023-05-15T05:46:33;7.97;;;4.90;;
22205;SDS011;11272;50.104;8.754;2023-05-15T05:48:59;5.80;;;4.50;;
22205;SDS011;11272;50.104;8.754;2023-05-15T05:51:24;6.80;;;5.13;;
22205;SDS011;11272;50.104;8.754;2023-05-15T05:53:50;6.70;;;4.87;;
22205;SDS011;11272;50.104;8.754;2023-05-15T05:56:16;7.27;;;4.37;;
22205;SDS011;11272;50.104;8.754;2023-05-15T05:58:41;8.40;;;4.73;;
22205;SDS011;11272;50.104;8.754;2023-05-15T06:01:09;5.57;;;4.77;;
22205;SDS011;11272;50.104;8.754;2023-05-15T06:03:37;6.90;;;4.30;;
22205;SDS011;11272;50.104;8.754;2023-05-15T06:06:03;5.60;;;4.17;;
22205;SDS011;11272;50.104;8.754;2023-05-15T06:08:29;5.77;;;4.13;;
22205;SDS011;11272;50.104;8.754;2023-05-15T06:10:54;5.33;;;4.00;;
22205;SDS011;11272;50.104;8.754;2023-05-15T06:13:20;5.43;;;3.97;;
22205;SDS011;11272;50.104;8.754;2023-05-15T06:15:46;4.77;;;4.27;;
22205;SDS011;11272;50.104;8.754;2023-05-15T06:18:12;8.00;;;6.23;;
22205;SDS011;11272;50.104;8.754;2023-05-15T06:20:37;4.73;;;4.10;;
22205;SDS011;11272;50.104;8.754;2023-05-15T06:23:03;4.90;;;4.30;;
22205;SDS011;11272;50.104;8.754;2023-05-15T06:25:28;5.17;;;4.30;;
22205;SDS011;11272;50.104;8.754;2023-05-15T06:27:54;4.83;;;4.20;;
22205;SDS011;11272;50.104;8.754;2023-05-15T06:30:20;4.60;;;3.77;;
22205;SDS011;11272;50.104;8.754;2023-05-15T06:32:46;6.10;;;3.70;;
22205;SDS011;11272;50.104;8.754;2023-05-15T06:35:11;4.40;;;3.43;;
22205;SDS011;11272;50.104;8.754;2023-05-15T06:37:37;3.80;;;3.30;;
22205;SDS011;11272;50.104;8.754;2023-05-15T06:40:03;4.50;;;3.80;;
22205;SDS011;11272;50.104;8.754;2023-05-15T06:42:30;3.70;;;3.33;;
22205;SDS011;11272;50.104;8.754;2023-05-15T06:44:56;4.23;;;3.70;;
22205;SDS011;11272;50.104;8.754;2023-05-15T06:47:21;5.00;;;3.53;;
22205;SDS011;11272;50.104;8.754;2023-05-15T06:49:47;4.37;;;3.60;;
22205;SDS011;11272;50.104;8.754;2023-05-15T06:52:12;4.63;;;3.97;;
22205;SDS011;11272;50.104;8.754;2023-05-15T06:54:38;5.70;;;3.73;;
22205;SDS011;11272;50.104;8.754;2023-05-15T06:57:05;4.70;;;3.70;;
22205;SDS011;11272;50.104;8.754;2023-05-15T06:59:37;4.60;;;3.70;;
22205;SDS011;11272;50.104;8.754;2023-05-15T07:02:03;5.47;;;3.87;;
22205;SDS011;11272;50.104;8.754;2023-05-15T07:04:29;4.33;;;3.50;;
22205;SDS011;11272;50.104;8.754;2023-05-15T07:06:57;4.60;;;3.70;;
22205;SDS011;11272;50.104;8.754;2023-05-15T07:09:23;4.43;;;3.60;;
22205;SDS011;11272;50.104;8.754;2023-05-15T07:11:49;5.37;;;4.20;;
22205;SDS011;11272;50.104;8.754;2023-05-15T07:14:15;5.30;;;4.07;;
22205;SDS011;11272;50.104;8.754;2023-05-15T07:16:40;5.70;;;3.50;;
22205;SDS011;11272;50.104;8.754;2023-05-15T07:19:09;4.40;;;3.63;;
22205;SDS011;11272;50.104;8.754;2023-05-15T07:21:35;7.13;;;4.30;;
22205;SDS011;11272;50.104;8.754;2023-05-15T07:24:01;5.87;;;3.67;;
22205;SDS011;11272;50.104;8.754;2023-05-15T07:26:27;6.40;;;3.70;;
22205;SDS011;11272;50.104;8.754;2023-05-15T07:28:55;4.10;;;3.70;;
22205;SDS011;11272;50.104;8.754;2023-05-15T07:31:21;4.93;;;3.77;;
22205;SDS011;11272;50.104;8.754;2023-05-15T07:33:46;3.87;;;3.47;;
22205;SDS011;11272;50.104;8.754;2023-05-15T07:36:12;4.33;;;3.50;;
22205;SDS011;11272;50.104;8.754;2023-05-15T07:38:38;5.53;;;3.47;;
22205;SDS011;11272;50.104;8.754;2023-05-15T07:41:03;4.27;;;3.57;;
22205;SDS011;11272;50.104;8.754;2023-05-15T07:43:33;3.67;;;3.30;;
22205;SDS011;11272;50.104;8.754;2023-05-15T07:45:58;4.37;;;3.43;;
22205;SDS011;11272;50.104;8.754;2023-05-15T07:48:24;4.30;;;3.30;;
22205;SDS011;11272;50.104;8.754;2023-05-15T07:50:50;4.13;;;3.73;;
22205;SDS011;11272;50.104;8.754;2023-05-15T07:53:16;3.77;;;2.93;;
22205;SDS011;11272;50.104;8.754;2023-05-15T07:55:42;4.80;;;3.27;;
22205;SDS011;11272;50.104;8.754;2023-05-15T07:58:08;5.10;;;3.08;;
22205;SDS011;11272;50.104;8.754;2023-05-15T08:00:34;4.88;;;2.92;;
22205;SDS011;11272;50.104;8.754;2023-05-15T08:03:00;3.55;;;3.25;;
22205;SDS011;11272;50.104;8.754;2023-05-15T08:05:25;3.88;;;3.22;;
22205;SDS011;11272;50.104;8.754;2023-05-15T08:07:53;5.35;;;3.03;;
22205;SDS011;11272;50.104;8.754;2023-05-15T08:10:20;3.63;;;2.90;;
22205;SDS011;11272;50.104;8.754;2023-05-15T08:12:45;5.45;;;3.13;;
22205;SDS011;11272;50.104;8.754;2023-05-15T08:15:12;3.95;;;3.25;;
22205;SDS011;11272;50.104;8.754;2023-05-15T08:17:39;4.13;;;3.40;;
22205;SDS011;11272;50.104;8.754;2023-05-15T08:22:53;3.20;;;2.90;;
22205;SDS011;11272;50.104;8.754;2023-05-15T08:25:22;3.75;;;2.78;;
22205;SDS011;11272;50.104;8.754;2023-05-15T08:27:48;4.40;;;3.08;;
22205;SDS011;11272;50.104;8.754;2023-05-15T08:30:17;3.05;;;2.83;;
22205;SDS011;11272;50.104;8.754;2023-05-15T08:32:46;3.70;;;2.70;;
22205;SDS011;11272;50.104;8.754;2023-05-15T08:35:14;2.97;;;2.53;;
22205;SDS011;11272;50.104;8.754;2023-05-15T08:37:40;3.05;;;2.70;;
22205;SDS011;11272;50.104;8.754;2023-05-15T08:40:06;3.47;;;2.75;;
22205;SDS011;11272;50.104;8.754;2023-05-15T08:42:42;3.53;;;2.72;;
22205;SDS011;11272;50.104;8.754;2023-05-15T08:47:44;2.78;;;2.47;;
22205;SDS011;11272;50.104;8.754;2023-05-15T08:52:42;2.92;;;2.65;;
22205;SDS011;11272;50.104;8.754;2023-05-15T08:55:11;3.28;;;2.75;;
22205;SDS011;11272;50.104;8.754;2023-05-15T08:57:38;2.35;;;2.13;;
22205;SDS011;11272;50.104;8.754;2023-05-15T09:00:05;3.97;;;2.60;;
22205;SDS011;11272;50.104;8.754;2023-05-15T09:02:36;4.40;;;2.85;;
22205;SDS011;11272;50.104;8.754;2023-05-15T09:05:06;5.35;;;3.13;;
22205;SDS011;11272;50.104;8.754;2023-05-15T09:07:33;6.03;;;2.92;;
22205;SDS011;11272;50.104;8.754;2023-05-15T09:10:00;2.88;;;2.58;;
22205;SDS011;11272;50.104;8.754;2023-05-15T09:12:30;3.13;;;2.65;;
22205;SDS011;11272;50.104;8.754;2023-05-15T09:15:14;3.05;;;2.55;;
22205;SDS011;11272;50.104;8.754;2023-05-15T09:17:42;4.53;;;2.75;;
22205;SDS011;11272;50.104;8.754;2023-05-15T09:20:50;4.55;;;2.60;;
22205;SDS011;11272;50.104;8.754;2023-05-15T09:22:59;3.15;;;2.85;;
22205;SDS011;11272;50.104;8.754;2023-05-15T09:28:24;3.53;;;2.58;;
22205;SDS011;11272;50.104;8.754;2023-05-15T09:30:58;3.40;;;3.10;;
22205;SDS011;11272;50.104;8.754;2023-05-15T09:33:31;3.55;;;2.90;;
22205;SDS011;11272;50.104;8.754;2023-05-15T09:36:08;4.25;;;2.83;;
22205;SDS011;11272;50.104;8.754;2023-05-15T09:38:38;2.85;;;2.65;;
22205;SDS011;11272;50.104;8.754;2023-05-15T09:41:07;3.40;;;2.70;;
22205;SDS011;11272;50.104;8.754;2023-05-15T09:43:36;3.15;;;2.72;;
22205;SDS011;11272;50.104;8.754;2023-05-15T09:46:03;3.35;;;2.65;;
22205;SDS011;11272;50.104;8.754;2023-05-15T09:48:29;2.53;;;2.33;;
22205;SDS011;11272;50.104;8.754;2023-05-15T09:50:55;3.10;;;2.80;;
22205;SDS011;11272;50.104;8.754;2023-05-15T09:53:22;3.20;;;2.78;;
22205;SDS011;11272;50.104;8.754;2023-05-15T09:55:48;2.90;;;2.60;;
22205;SDS011;11272;50.104;8.754;2023-05-15T09:58:15;3.63;;;2.67;;
22205;SDS011;11272;50.104;8.754;2023-05-15T10:00:43;3.30;;;2.70;;
22205;SDS011;11272;50.104;8.754;2023-05-15T10:03:10;3.13;;;2.78;;
22205;SDS011;11272;50.104;8.754;2023-05-15T10:05:36;2.95;;;2.55;;
22205;SDS011;11272;50.104;8.754;2023-05-15T10:08:03;2.80;;;2.60;;
22205;SDS011;11272;50.104;8.754;2023-05-15T10:10:29;3.38;;;2.80;;
22205;SDS011;11272;50.104;8.754;2023-05-15T10:12:58;3.03;;;2.70;;
22205;SDS011;11272;50.104;8.754;2023-05-15T10:15:29;4.25;;;3.00;;
22205;SDS011;11272;50.104;8.754;2023-05-15T10:17:54;4.15;;;3.15;;
22205;SDS011;11272;50.104;8.754;2023-05-15T10:20:21;5.50;;;3.20;;
22205;SDS011;11272;50.104;8.754;2023-05-15T10:22:48;5.00;;;3.13;;
22205;SDS011;11272;50.104;8.754;2023-05-15T10:25:26;3.63;;;3.22;;
22205;SDS011;11272;50.104;8.754;2023-05-15T10:27:59;3.83;;;3.42;;
22205;SDS011;11272;50.104;8.754;2023-05-15T10:30:25;3.40;;;2.92;;
22205;SDS011;11272;50.104;8.754;2023-05-15T10:32:52;3.63;;;3.17;;
22205;SDS011;11272;50.104;8.754;2023-05-15T10:35:19;4.82;;;3.10;;
22205;SDS011;11272;50.104;8.754;2023-05-15T10:37:46;3.08;;;2.80;;
22205;SDS011;11272;50.104;8.754;2023-05-15T10:40:14;3.92;;;3.08;;
22205;SDS011;11272;50.104;8.754;2023-05-15T10:42:41;3.97;;;3.20;;
22205;SDS011;11272;50.104;8.754;2023-05-15T10:45:09;4.72;;;3.55;;
22205;SDS011;11272;50.104;8.754;2023-05-15T10:47:37;6.07;;;3.67;;
22205;SDS011;11272;50.104;8.754;2023-05-15T10:50:07;5.13;;;3.65;;
22205;SDS011;11272;50.104;8.754;2023-05-15T10:52:37;3.90;;;3.28;;
22205;SDS011;11272;50.104;8.754;2023-05-15T10:55:13;5.45;;;3.72;;
22205;SDS011;11272;50.104;8.754;2023-05-15T10:57:41;4.28;;;3.40;;
22205;SDS011;11272;50.104;8.754;2023-05-15T11:02:43;9.03;;;3.63;;
22205;SDS011;11272;50.104;8.754;2023-05-15T11:05:09;4.00;;;3.43;;
22205;SDS011;11272;50.104;8.754;2023-05-15T11:07:36;5.63;;;4.30;;
22205;SDS011;11272;50.104;8.754;2023-05-15T11:12:56;5.60;;;4.33;;
22205;SDS011;11272;50.104;8.754;2023-05-15T11:15:25;5.67;;;4.30;;
22205;SDS011;11272;50.104;8.754;2023-05-15T11:18:06;6.70;;;4.57;;
22205;SDS011;11272;50.104;8.754;2023-05-15T11:21:04;7.73;;;4.03;;
22205;SDS011;11272;50.104;8.754;2023-05-15T11:23:27;5.93;;;4.10;;
22205;SDS011;11272;50.104;8.754;2023-05-15T11:25:54;7.80;;;4.43;;
22205;SDS011;11272;50.104;8.754;2023-05-15T11:28:22;7.97;;;5.00;;
22205;SDS011;11272;50.104;8.754;2023-05-15T11:30:51;4.50;;;3.53;;
22205;SDS011;11272;50.104;8.754;2023-05-15T11:33:25;6.23;;;3.83;;
22205;SDS011;11272;50.104;8.754;2023-05-15T11:35:57;6.33;;;3.50;;
22205;SDS011;11272;50.104;8.754;2023-05-15T11:38:24;5.10;;;3.90;;
22205;SDS011;11272;50.104;8.754;2023-05-15T11:40:55;5.03;;;4.23;;
22205;SDS011;11272;50.104;8.754;2023-05-15T11:43:24;6.80;;;4.70;;
22205;SDS011;11272;50.104;8.754;2023-05-15T11:46:16;5.67;;;3.60;;
22205;SDS011;11272;50.104;8.754;2023-05-15T11:48:42;5.50;;;4.10;;
22205;SDS011;11272;50.104;8.754;2023-05-15T11:51:16;6.93;;;4.70;;
22205;SDS011;11272;50.104;8.754;2023-05-15T11:53:50;5.20;;;4.10;;
22205;SDS011;11272;50.104;8.754;2023-05-15T11:56:18;6.57;;;4.53;;
22205;SDS011;11272;50.104;8.754;2023-05-15T11:58:49;8.93;;;5.10;;
22205;SDS011;11272;50.104;8.754;2023-05-15T12:01:15;9.00;;;5.07;;
22205;SDS011;11272;50.104;8.754;2023-05-15T12:03:41;8.97;;;5.30;;
22205;SDS011;11272;50.104;8.754;2023-05-15T12:06:10;5.57;;;4.77;;
22205;SDS011;11272;50.104;8.754;2023-05-15T12:08:38;8.87;;;5.37;;
22205;SDS011;11272;50.104;8.754;2023-05-15T12:11:05;8.80;;;4.90;;
22205;SDS011;11272;50.104;8.754;2023-05-15T12:13:31;8.63;;;5.47;;
22205;SDS011;11272;50.104;8.754;2023-05-15T12:15:57;8.00;;;5.97;;
22205;SDS011;11272;50.104;8.754;2023-05-15T12:18:25;9.80;;;6.00;;
22205;SDS011;11272;50.104;8.754;2023-05-15T12:20:51;7.73;;;5.57;;
22205;SDS011;11272;50.104;8.754;2023-05-15T12:23:19;11.43;;;5.90;;
22205;SDS011;11272;50.104;8.754;2023-05-15T12:25:46;10.10;;;6.63;;
22205;SDS011;11272;50.104;8.754;2023-05-15T12:28:14;9.70;;;6.53;;
22205;SDS011;11272;50.104;8.754;2023-05-15T12:30:41;9.43;;;6.23;;
22205;SDS011;11272;50.104;8.754;2023-05-15T12:33:08;8.50;;;5.40;;
22205;SDS011;11272;50.104;8.754;2023-05-15T12:35:35;6.87;;;5.53;;
22205;SDS011;11272;50.104;8.754;2023-05-15T12:38:05;7.77;;;5.17;;
22205;SDS011;11272;50.104;8.754;2023-05-15T12:40:35;8.33;;;5.57;;
22205;SDS011;11272;50.104;8.754;2023-05-15T12:43:04;7.73;;;5.03;;
22205;SDS011;11272;50.104;8.754;2023-05-15T12:45:31;8.23;;;5.17;;
22205;SDS011;11272;50.104;8.754;2023-05-15T12:48:02;5.40;;;4.57;;
22205;SDS011;11272;50.104;8.754;2023-05-15T12:50:30;7.38;;;4.90;;
22205;SDS011;11272;50.104;8.754;2023-05-15T12:52:57;5.32;;;4.13;;
22205;SDS011;11272;50.104;8.754;2023-05-15T12:57:52;5.47;;;3.40;;
22205;SDS011;11272;50.104;8.754;2023-05-15T13:00:21;4.32;;;3.78;;
22205;SDS011;11272;50.104;8.754;2023-05-15T13:02:48;7.13;;;3.47;;
22205;SDS011;11272;50.104;8.754;2023-05-15T13:05:18;5.53;;;3.70;;
22205;SDS011;11272;50.104;8.754;2023-05-15T13:07:44;4.60;;;3.78;;
22205;SDS011;11272;50.104;8.754;2023-05-15T13:10:10;4.80;;;3.53;;
22205;SDS011;11272;50.104;8.754;2023-05-15T13:12:44;5.15;;;3.67;;
22205;SDS011;11272;50.104;8.754;2023-05-15T13:18:08;7.95;;;4.40;;
22205;SDS011;11272;50.104;8.754;2023-05-15T13:20:42;3.58;;;3.03;;
22205;SDS011;11272;50.104;8.754;2023-05-15T13:23:09;3.47;;;3.10;;
22205;SDS011;11272;50.104;8.754;2023-05-15T13:25:37;3.72;;;3.30;;
22205;SDS011;11272;50.104;8.754;2023-05-15T13:28:05;4.72;;;3.40;;
22205;SDS011;11272;50.104;8.754;2023-05-15T13:30:32;4.97;;;3.58;;
22205;SDS011;11272;50.104;8.754;2023-05-15T13:32:58;4.35;;;3.35;;
22205;SDS011;11272;50.104;8.754;2023-05-15T13:35:25;3.85;;;3.15;;
22205;SDS011;11272;50.104;8.754;2023-05-15T13:37:51;5.10;;;3.08;;
22205;SDS011;11272;50.104;8.754;2023-05-15T13:40:17;3.75;;;3.15;;
22205;SDS011;11272;50.104;8.754;2023-05-15T13:42:43;4.75;;;3.67;;
22205;SDS011;11272;50.104;8.754;2023-05-15T13:45:12;3.50;;;3.20;;
22205;SDS011;11272;50.104;8.754;2023-05-15T13:47:39;3.78;;;3.20;;
22205;SDS011;11272;50.104;8.754;2023-05-15T13:50:09;3.20;;;2.90;;
22205;SDS011;11272;50.104;8.754;2023-05-15T13:52:36;3.40;;;3.10;;
22205;SDS011;11272;50.104;8.754;2023-05-15T13:55:02;3.10;;;2.70;;
22205;SDS011;11272;50.104;8.754;2023-05-15T13:57:29;4.25;;;2.22;;
22205;SDS011;11272;50.104;8.754;2023-05-15T13:59:56;2.67;;;2.40;;
22205;SDS011;11272;50.104;8.754;2023-05-15T14:02:25;2.70;;;2.00;;
22205;SDS011;11272;50.104;8.754;2023-05-15T14:04:51;3.20;;;2.40;;
22205;SDS011;11272;50.104;8.754;2023-05-15T14:07:18;2.40;;;2.20;;
22205;SDS011;11272;50.104;8.754;2023-05-15T14:09:46;3.10;;;2.50;;
22205;SDS011;11272;50.104;8.754;2023-05-15T14:12:11;3.03;;;2.50;;
22205;SDS011;11272;50.104;8.754;2023-05-15T14:14:38;3.97;;;2.80;;
22205;SDS011;11272;50.104;8.754;2023-05-15T14:17:06;6.00;;;2.80;;
22205;SDS011;11272;50.104;8.754;2023-05-15T14:19:32;5.73;;;3.17;;
22205;SDS011;11272;50.104;8.754;2023-05-15T14:21:59;4.90;;;2.70;;
22205;SDS011;11272;50.104;8.754;2023-05-15T14:24:25;5.63;;;3.10;;
22205;SDS011;11272;50.104;8.754;2023-05-15T14:26:50;5.50;;;3.23;;
22205;SDS011;11272;50.104;8.754;2023-05-15T14:29:16;3.40;;;2.87;;
22205;SDS011;11272;50.104;8.754;2023-05-15T14:31:42;5.73;;;3.00;;
22205;SDS011;11272;50.104;8.754;2023-05-15T14:34:07;2.43;;;2.23;;
22205;SDS011;11272;50.104;8.754;2023-05-15T14:36:33;3.10;;;2.30;;
22205;SDS011;11272;50.104;8.754;2023-05-15T14:38:59;2.67;;;2.03;;
22205;SDS011;11272;50.104;8.754;2023-05-15T14:41:25;1.87;;;1.60;;
22205;SDS011;11272;50.104;8.754;2023-05-15T14:43:51;2.40;;;2.10;;
22205;SDS011;11272;50.104;8.754;2023-05-15T14:46:19;2.30;;;2.10;;
22205;SDS011;11272;50.104;8.754;2023-05-15T14:48:44;2.70;;;2.40;;
22205;SDS011;11272;50.104;8.754;2023-05-15T14:51:10;2.73;;;2.20;;
22205;SDS011;11272;50.104;8.754;2023-05-15T14:53:35;3.93;;;1.97;;
22205;SDS011;11272;50.104;8.754;2023-05-15T14:56:01;4.10;;;2.30;;
22205;SDS011;11272;50.104;8.754;2023-05-15T14:58:27;3.00;;;2.30;;
22205;SDS011;11272;50.104;8.754;2023-05-15T15:00:53;3.40;;;2.67;;
22205;SDS011;11272;50.104;8.754;2023-05-15T15:03:19;4.50;;;3.13;;
22205;SDS011;11272;50.104;8.754;2023-05-15T15:05:46;4.73;;;3.30;;
22205;SDS011;11272;50.104;8.754;2023-05-15T15:08:12;8.13;;;3.30;;
22205;SDS011;11272;50.104;8.754;2023-05-15T15:10:38;5.07;;;3.70;;
22205;SDS011;11272;50.104;8.754;2023-05-15T15:13:05;6.87;;;3.63;;
22205;SDS011;11272;50.104;8.754;2023-05-15T15:15:34;6.97;;;3.77;;
22205;SDS011;11272;50.104;8.754;2023-05-15T15:18:01;5.90;;;3.67;;
22205;SDS011;11272;50.104;8.754;2023-05-15T15:20:29;5.57;;;4.00;;